Latest Weather Observations for PORTABLE NPWS NSW02

IDN60801

Issued at 12:53 am EST Thursday 15 April 2021 (issued every 10 minutes, with the page automatically refreshed every 10 minutes)

About weather observations | Map of weather stations | Latest weather observations for NSW | Other Formats
Station Details ID: 250099 Name: PORTABLE NPWS NSW02 Lat: -33.10 Lon: 150.07 Height: 983.0 m

Portable automatic weather stations (PAWS) are operated by other organisations, such as Fire and Emergency Services, and are included here by agreement. Portable stations may be deployed to a location for a short period and their location may be subject to change without notice. Wind observations from these stations are provided from heights of either three (3) or ten (10) metres above ground level (AGL).

Data from the previous 72 hours. | See also: Recent months for locations in New South Wales
Date/Time
EST
Temp
°C
App
Temp
°C
Dew
Point
°C
Rel
Hum
%
Delta-T
°C
Wind Press
QNH
hPa
Press
MSL
hPa
Rain since
9am
mm
Dir  Spd
km/h
Gust
km/h
Spd
kts
Gust
kts
15/12:40am 13.9 8.0 1.4 42 5.7 W 22 24 12 13 - - 0.0
15/12:30am 14.0 8.4 1.4 42 5.8 W 20 24 11 13 - - 0.0
15/12:20am 14.0 8.1 1.5 42 5.7 W 22 26 12 14 - - 0.0
15/12:00am 14.2 9.6 1.5 42 5.8 W 15 19 8 10 - - 0.0
 
Date/Time
EST
Temp
°C
App
Temp
°C
Dew
Point
°C
Rel
Hum
%
Delta-T
°C
Wind Press
QNH
hPa
Press
MSL
hPa
Rain since
9am
mm
Dir  Spd
km/h
Gust
km/h
Spd
kts
Gust
kts
14/11:50pm 14.4 9.4 1.4 41 6.0 W 17 26 9 14 - - 0.0
14/11:40pm 14.6 9.0 1.4 40 6.1 WNW 20 30 11 16 - - 0.0
14/11:30pm 14.7 9.1 1.2 40 6.2 WNW 20 30 11 16 - - 0.0
14/11:20pm 14.8 7.7 1.1 39 6.3 WNW 28 33 15 18 - - 0.0
14/11:10pm 14.9 8.9 1.3 39 6.2 WNW 22 32 12 17 - - 0.0
14/11:00pm 14.9 8.9 1.3 39 6.2 WNW 22 30 12 16 - - 0.0
14/10:50pm 15.0 9.1 1.6 40 6.2 W 22 32 12 17 - - 0.0
14/10:40pm 15.0 9.1 1.8 41 6.1 WNW 22 28 12 15 - - 0.0
14/10:30pm 15.1 8.8 1.7 40 6.2 W 24 30 13 16 - - 0.0
14/10:20pm 15.2 9.8 1.5 39 6.3 W 19 26 10 14 - - 0.0
14/10:10pm 15.4 9.9 0.7 37 6.7 WNW 19 28 10 15 - - 0.0
14/10:00pm 15.4 9.8 0.2 35 6.9 W 19 26 10 14 - - 0.0
14/09:50pm 15.5 10.6 -0.2 34 7.0 WNW 15 22 8 12 - - 0.0
14/09:40pm 15.6 9.9 -0.6 33 7.2 W 19 30 10 16 - - 0.0
14/09:30pm 15.5 10.6 -0.6 33 7.1 WNW 15 19 8 10 - - 0.0
14/09:20pm 15.5 11.3 -0.7 33 7.2 W 11 19 6 10 - - 0.0
14/09:10pm 15.7 11.1 -0.7 32 7.3 WNW 13 19 7 10 - - 0.0
14/09:00pm 15.7 11.1 -0.8 32 7.3 WNW 13 17 7 9 - - 0.0
14/08:50pm 15.8 11.2 -0.7 32 7.3 WNW 13 19 7 10 - - 0.0
14/08:40pm 15.9 11.3 -0.8 32 7.4 NW 13 20 7 11 - - 0.0
14/08:30pm 16.0 11.4 -0.7 32 7.4 NW 13 17 7 9 - - 0.0
14/08:20pm 16.0 11.4 -0.8 31 7.5 NW 13 19 7 10 - - 0.0
14/08:10pm 16.2 10.9 -0.8 31 7.6 NW 17 24 9 13 - - 0.0
14/08:00pm 16.1 11.2 -0.7 31 7.5 NW 15 20 8 11 - - 0.0
14/07:50pm 16.2 10.9 -0.6 32 7.5 NW 17 20 9 11 - - 0.0
14/07:40pm 16.2 10.9 -0.6 32 7.5 WNW 17 22 9 12 - - 0.0
14/07:30pm 16.3 11.0 -0.7 31 7.6 NW 17 20 9 11 - - 0.0
14/07:20pm 16.4 11.5 -0.5 31 7.6 NW 15 17 8 9 - - 0.0
14/07:10pm 16.5 10.8 -0.5 31 7.6 NW 19 22 10 12 - - 0.0
14/07:00pm 16.5 10.8 -0.6 31 7.7 NW 19 24 10 13 - - 0.0
14/06:50pm 16.5 11.9 -0.7 31 7.7 NW 13 24 7 13 - - 0.0
14/06:40pm 16.7 11.4 -0.7 30 7.8 NNW 17 24 9 13 - - 0.0
14/06:30pm 16.7 11.0 -0.7 30 7.8 NW 19 22 10 12 - - 0.0
14/06:20pm 16.7 12.1 -0.7 30 7.8 NW 13 20 7 11 - - 0.0
14/06:10pm 16.9 12.0 -0.7 30 7.9 NW 15 20 8 11 - - 0.0
14/06:00pm 17.0 12.8 -0.9 29 8.0 NW 11 17 6 9 - - 0.0
14/05:50pm 17.0 12.4 -0.9 29 8.0 NW 13 20 7 11 - - 0.0
14/05:40pm 17.1 12.5 -1.0 29 8.1 WNW 13 24 7 13 - - 0.0
14/05:30pm 17.2 11.8 -1.1 29 8.2 NW 17 30 9 16 - - 0.0
14/05:20pm 17.4 12.8 -1.2 28 8.3 NW 13 20 7 11 - - 0.0
14/05:10pm 17.4 12.0 -1.2 28 8.3 NW 17 26 9 14 - - 0.0
14/05:00pm 17.6 12.7 -0.5 29 8.2 NNW 15 24 8 13 - - 0.0
14/04:50pm 18.2 12.7 0.6 30 8.2 W 19 30 10 16 - - 0.0
14/04:40pm 19.0 14.6 0.4 28 8.7 NNW 13 28 7 15 - - 0.0
14/04:30pm 19.0 14.2 0.2 28 8.7 WNW 15 24 8 13 - - 0.0
14/04:20pm 18.9 12.8 0.2 28 8.7 NW 22 33 12 18 - - 0.0
14/04:10pm 19.2 14.1 0.6 28 8.7 NW 17 22 9 12 - - 0.0
14/04:00pm 19.4 14.0 1.0 29 8.7 NW 19 33 10 18 - - 0.0
14/03:50pm 19.3 13.3 1.3 30 8.6 NW 22 30 12 16 - - 0.0
14/03:40pm 19.6 14.9 0.9 28 8.8 W 15 24 8 13 - - 0.0
14/03:30pm 19.6 14.8 0.5 28 9.0 NW 15 20 8 11 - - 0.0
14/03:20pm 19.7 14.0 -0.4 26 9.3 NW 19 30 10 16 - - 0.0
14/03:10pm 20.0 14.4 0.0 26 9.3 W 19 30 10 16 - - 0.0
14/03:00pm 19.9 14.1 -0.1 26 9.3 WNW 20 26 11 14 - - 0.0
14/02:50pm 20.0 15.6 0.5 27 9.2 NW 13 19 7 10 - - 0.0
14/02:40pm 19.4 13.3 0.1 27 9.0 WNW 22 32 12 17 - - 0.0
14/02:30pm 19.2 13.8 -1.0 25 9.2 NNW 17 28 9 15 - - 0.0
14/02:20pm 19.1 13.2 -0.7 26 9.0 NW 20 44 11 24 - - 0.0
14/02:10pm 19.2 12.8 -1.5 24 9.3 NNW 22 39 12 21 - - 0.0
14/02:00pm 19.3 13.5 -1.2 25 9.3 N 19 28 10 15 - - 0.0
14/01:50pm 19.2 11.7 -1.7 24 9.4 NNW 28 37 15 20 - - 0.0
14/01:40pm 19.6 13.6 -1.4 24 9.5 WNW 20 32 11 17 - - 0.0
14/01:30pm 19.3 13.3 -1.7 24 9.4 NW 20 28 11 15 - - 0.0
14/01:20pm 19.4 12.9 -2.5 22 9.7 NNW 22 35 12 19 - - 0.0
14/01:10pm 19.6 13.8 -1.5 24 9.5 WNW 19 28 10 15 - - 0.0
14/01:00pm 19.4 13.3 -2.2 23 9.6 W 20 26 11 14 - - 0.0
14/12:50pm 19.0 12.0 -3.2 22 9.6 NW 24 35 13 19 - - 0.0
14/12:40pm 19.3 13.2 -2.7 22 9.7 WNW 20 37 11 20 - - 0.0
14/12:30pm 19.3 13.4 -2.2 23 9.5 NW 19 24 10 13 - - 0.0
14/12:20pm 19.1 13.2 -1.0 25 9.1 NW 20 30 11 16 - - 0.0
14/12:10pm 18.6 12.6 -1.4 26 9.0 WNW 20 30 11 16 - - 0.0
14/12:00pm 18.7 13.8 -0.4 27 8.7 NW 15 20 8 11 - - 0.0
14/11:50am 18.6 13.0 -0.3 28 8.7 NNW 19 26 10 14 - - 0.0
14/11:40am 18.1 12.2 -0.5 28 8.5 NW 20 28 11 15 - - 0.0
14/11:30am 17.9 11.5 -1.7 26 8.7 WNW 22 32 12 17 - - 0.0
14/11:20am 18.0 12.3 -1.0 27 8.5 WNW 19 28 10 15 - - 0.0
14/11:10am 17.5 11.7 -0.3 30 8.1 WNW 20 32 11 17 - - 0.0
14/11:00am 17.4 10.4 -0.2 30 8.0 NW 26 35 14 19 - - 0.0
14/10:50am 17.5 11.4 0.1 31 8.0 WNW 22 33 12 18 - - 0.0
14/10:40am 17.4 12.2 0.1 31 7.9 NNW 17 26 9 14 - - 0.0
14/10:30am 17.2 11.3 -0.5 30 8.0 W 20 32 11 17 - - 0.0
14/10:20am 17.0 11.8 0.4 32 7.6 WNW 17 24 9 13 - - 0.0
14/10:10am 16.3 10.5 0.2 33 7.3 NW 20 37 11 20 - - 0.0
14/10:00am 16.2 10.6 -0.1 33 7.4 WNW 19 30 10 16 - - 0.0
14/09:50am 15.6 9.4 -0.1 34 7.0 WNW 22 30 12 16 - - 0.0
14/09:40am 16.0 10.3 0.3 34 7.1 W 20 32 11 17 - - 0.0
14/09:30am 15.9 10.8 0.8 36 6.9 NW 17 24 9 13 - - 0.0
14/09:20am 15.4 9.9 0.6 36 6.7 NW 19 24 10 13 - - 0.0
14/09:10am 14.9 8.8 0.5 37 6.5 NW 22 32 12 17 - - 0.0
14/09:00am 14.6 9.1 0.3 37 6.4 NW 19 28 10 15 - - 0.0
14/08:50am 14.0 8.2 -0.1 38 6.2 NNW 20 35 11 19 - - 0.0
14/08:40am 13.4 8.3 0.8 42 5.7 NW 17 24 9 13 - - 0.0
14/08:30am 13.5 7.8 0.4 40 5.8 NW 20 32 11 17 - - 0.0
14/08:20am 13.7 8.6 0.5 40 5.9 WNW 17 24 9 13 - - 0.0
14/07:30am 13.0 8.7 0.8 43 5.5 NW 13 24 7 13 - - 0.0
14/07:20am 13.1 8.4 0.6 42 5.6 NW 15 19 8 10 - - 0.0
14/07:10am 12.9 8.5 0.3 42 5.6 NW 13 19 7 10 - - 0.0
14/07:00am 12.7 7.1 0.2 42 5.5 WNW 19 30 10 16 - - 0.0
14/06:50am 12.8 6.9 -0.5 40 5.8 NW 20 33 11 18 - - 0.0
14/06:40am 12.8 6.9 -0.6 39 5.8 NW 20 37 11 20 - - 0.0
14/06:30am 12.6 6.7 -2.1 36 6.1 NW 19 24 10 13 - - 0.0
14/06:20am 12.7 5.5 -2.4 35 6.3 WNW 26 39 14 21 - - 0.0
14/06:10am 12.6 6.5 -2.1 36 6.1 WNW 20 32 11 17 - - 0.0
14/06:00am 12.6 7.1 -2.1 36 6.1 NW 17 24 9 13 - - 0.0
14/05:50am 12.6 6.8 -1.8 36 6.1 WNW 19 28 10 15 - - 0.0
14/05:40am 12.6 6.6 -1.5 37 6.0 WNW 20 26 11 14 - - 0.0
14/05:30am 12.6 7.5 -1.6 37 6.0 NW 15 19 8 10 - - 0.0
14/05:20am 12.5 7.8 -1.9 36 6.0 N 13 17 7 9 - - 0.0
14/05:10am 12.4 7.7 -2.0 36 6.0 NNW 13 20 7 11 - - 0.0
14/05:00am 12.2 7.9 -1.6 38 5.8 N 11 19 6 10 - - 0.0
14/04:50am 12.3 7.6 -1.8 37 5.9 NNW 13 22 7 12 - - 0.0
14/04:40am 12.3 6.5 -1.6 38 5.9 NW 19 24 10 13 - - 0.0
14/04:30am 12.1 7.5 -1.3 39 5.7 NNW 13 22 7 12 - - 0.0
14/04:20am 12.3 6.9 -1.3 39 5.8 NW 17 22 9 12 - - 0.0
14/04:10am 12.4 6.4 -1.5 38 5.9 NW 20 28 11 15 - - 0.0
14/04:00am 12.2 6.2 -1.7 38 5.8 NW 20 26 11 14 - - 0.0
14/03:50am 12.3 6.3 -1.8 37 5.9 NW 20 28 11 15 - - 0.0
14/03:40am 12.4 6.6 -1.7 37 5.9 NW 19 24 10 13 - - 0.0
14/03:30am 12.4 6.6 -1.6 38 5.9 NW 19 30 10 16 - - 0.0
14/03:20am 12.4 7.7 -1.7 37 5.9 NNW 13 22 7 12 - - 0.0
14/03:10am 12.4 7.7 -1.6 38 5.9 NNW 13 19 7 10 - - 0.0
14/03:00am 12.4 8.1 -1.7 37 5.9 NW 11 17 6 9 - - 0.0
14/02:50am 12.3 7.6 -2.1 36 6.0 NNW 13 20 7 11 - - 0.0
14/02:40am 12.3 7.6 -2.1 36 6.0 NW 13 20 7 11 - - 0.0
14/02:30am 12.2 7.8 -2.1 37 6.0 NW 11 15 6 8 - - 0.0
14/02:20am 12.2 6.7 -2.2 36 6.0 NW 17 22 9 12 - - 0.0
14/02:10am 12.2 6.7 -1.9 37 5.9 NNW 17 24 9 13 - - 0.0
14/02:00am 12.2 6.8 -1.7 38 5.8 NNW 17 20 9 11 - - 0.0
14/01:50am 12.2 6.4 -1.7 38 5.8 NNW 19 22 10 12 - - 0.0
14/01:40am 12.3 7.3 -1.0 39 5.7 NW 15 22 8 12 - - 0.0
14/01:30am 12.4 7.1 -0.5 41 5.6 NNW 17 22 9 12 - - 0.0
14/01:20am 12.5 7.2 -0.5 40 5.6 NW 17 20 9 11 - - 0.0
14/01:10am 12.6 6.9 -0.5 40 5.7 NNW 19 20 10 11 - - 0.0
14/01:00am 12.6 6.9 -0.5 40 5.7 NNW 19 20 10 11 - - 0.0
14/12:50am 12.8 6.6 -0.5 40 5.8 NNW 22 24 12 13 - - 0.0
14/12:40am 12.9 7.1 -0.1 41 5.7 NNW 20 26 11 14 - - 0.0
14/12:30am 13.0 7.1 -0.6 39 5.9 NW 20 26 11 14 - - 0.0
14/12:20am 13.1 7.7 -1.2 37 6.1 NW 17 22 9 12 - - 0.0
14/12:10am 13.1 7.7 -1.4 36 6.2 NNW 17 20 9 11 - - 0.0
14/12:00am 13.3 7.3 -1.4 36 6.3 NW 20 24 11 13 - - 0.0
 
Date/Time
EST
Temp
°C
App
Temp
°C
Dew
Point
°C
Rel
Hum
%
Delta-T
°C
Wind Press
QNH
hPa
Press
MSL
hPa
Rain since
9am
mm
Dir  Spd
km/h
Gust
km/h
Spd
kts
Gust
kts
13/11:50pm 13.3 7.3 -1.3 36 6.3 NNW 20 22 11 12 - - 0.0
13/11:40pm 13.1 7.3 -1.7 36 6.3 NNW 19 20 10 11 - - 0.0
13/11:30pm 12.7 7.3 -1.5 37 6.0 NW 17 19 9 10 - - 0.0
13/11:20pm 12.7 7.3 -1.4 37 6.0 NW 17 20 9 11 - - 0.0
13/11:10pm 12.6 7.2 -1.3 38 5.9 NW 17 20 9 11 - - 0.0
13/11:00pm 12.6 7.2 -1.3 38 5.9 NNW 17 19 9 10 - - 0.0
13/10:50pm 12.6 7.6 -1.2 38 5.9 NNW 15 17 8 9 - - 0.0
13/10:40pm 12.9 7.9 -1.0 38 6.0 NNW 15 17 8 9 - - 0.0
13/10:30pm 13.4 9.1 -1.3 36 6.3 NW 11 15 6 8 - - 0.0
13/10:20pm 13.5 8.9 -1.3 36 6.4 NW 13 15 7 8 - - 0.0
13/10:10pm 13.6 9.0 -1.2 36 6.4 NW 13 19 7 10 - - 0.0
13/10:00pm 13.4 8.4 -1.5 35 6.4 NW 15 19 8 10 - - 0.0
13/09:50pm 13.1 8.5 -1.3 37 6.2 NW 13 15 7 8 - - 0.0
13/09:40pm 13.2 8.6 -1.3 36 6.2 NW 13 17 7 9 - - 0.0
13/09:30pm 13.4 8.8 -1.3 36 6.3 NNW 13 15 7 8 - - 0.0
13/09:20pm 13.5 9.3 -1.2 36 6.3 NNW 11 15 6 8 - - 0.0
13/09:10pm 13.6 9.4 -1.2 36 6.4 NNW 11 11 6 6 - - 0.0
13/09:00pm 13.7 9.5 -0.9 36 6.3 NNW 11 15 6 8 - - 0.0
13/08:50pm 13.8 9.2 -1.2 35 6.5 NW 13 17 7 9 - - 0.0
13/08:40pm 13.8 9.6 -0.9 36 6.4 NW 11 15 6 8 - - 0.0
13/08:30pm 13.8 9.6 -0.9 36 6.4 NW 11 17 6 9 - - 0.0
13/08:20pm 13.7 9.5 -1.2 35 6.4 NNW 11 17 6 9 - - 0.0
13/08:10pm 13.9 9.7 -1.1 35 6.5 NW 11 15 6 8 - - 0.0
13/08:00pm 13.8 9.2 -1.3 35 6.5 NW 13 17 7 9 - - 0.0
13/07:50pm 14.0 9.4 -1.1 35 6.5 NW 13 17 7 9 - - 0.0
13/07:40pm 14.0 9.0 -1.3 35 6.6 NW 15 20 8 11 - - 0.0
13/07:30pm 14.0 9.4 -1.0 35 6.5 NW 13 17 7 9 - - 0.0
13/07:20pm 14.0 9.4 -1.1 35 6.5 NW 13 17 7 9 - - 0.0
13/07:10pm 14.0 9.0 -1.1 35 6.5 NW 15 19 8 10 - - 0.0
13/07:00pm 14.1 9.1 -1.1 35 6.6 NW 15 17 8 9 - - 0.0
13/06:50pm 14.1 9.1 -0.9 35 6.5 NW 15 17 8 9 - - 0.0
13/06:40pm 14.2 8.9 -0.9 35 6.6 NNW 17 19 9 10 - - 0.0
13/06:30pm 14.3 9.4 -0.7 35 6.6 NW 15 17 8 9 - - 0.0
13/06:20pm 14.3 9.4 -0.7 35 6.6 NW 15 19 8 10 - - 0.0
13/06:10pm 14.4 9.5 -0.5 36 6.6 NW 15 17 8 9 - - 0.0
13/06:00pm 14.6 9.7 -0.7 35 6.7 NNW 15 19 8 10 - - 0.0
13/05:50pm 14.7 9.4 -0.8 34 6.8 NNW 17 19 9 10 - - 0.0
13/05:40pm 14.9 9.6 -0.8 34 6.9 NNW 17 19 9 10 - - 0.0
13/05:30pm 15.3 10.1 0.0 35 6.9 NNW 17 20 9 11 - - 0.0
13/05:20pm 15.7 10.9 0.3 35 7.0 NNW 15 20 8 11 - - 0.0
13/05:10pm 16.0 12.5 1.0 36 6.9 NNW 9 15 5 8 - - 0.0
13/05:00pm 16.2 11.9 0.9 35 7.0 NNW 13 22 7 12 - - 0.0
13/04:50pm 16.8 11.6 0.3 32 7.5 NNW 17 24 9 13 - - 0.0
13/04:40pm 17.2 12.0 0.3 32 7.7 NNW 17 24 9 13 - - 0.0
13/04:30pm 17.4 13.4 0.7 32 7.7 NNW 11 19 6 10 - - 0.0
13/04:20pm 17.8 13.5 0.7 31 7.9 NNW 13 17 7 9 - - 0.0
13/04:10pm 17.8 13.9 1.0 32 7.9 NNW 11 19 6 10 - - 0.0
13/04:00pm 17.9 13.9 0.6 31 8.0 NNW 11 19 6 10 - - 0.0
13/03:50pm 18.1 13.7 0.6 30 8.1 NNW 13 22 7 12 - - 0.0
13/03:40pm 18.1 14.6 1.1 32 8.0 N 9 19 5 10 - - 0.0
13/03:30pm 18.2 14.2 0.8 31 8.1 NW 11 19 6 10 - - 0.0
13/03:20pm 18.5 14.5 0.8 30 8.3 NNW 11 17 6 9 - - 0.0
13/03:10pm 18.6 14.7 1.4 31 8.2 N 11 15 6 8 - - 0.0
13/03:00pm 18.4 14.5 0.9 31 8.2 NW 11 17 6 9 - - 0.0
13/02:50pm 18.5 14.6 1.2 31 8.2 NNW 11 17 6 9 - - 0.0
13/02:40pm 18.3 14.4 1.4 32 8.0 WNW 11 19 6 10 - - 0.0
13/02:30pm 18.5 15.4 1.2 31 8.2 N 7 9 4 5 - - 0.0
13/02:20pm 18.2 14.6 0.9 31 8.1 NNW 9 17 5 9 - - 0.0
13/02:10pm 18.4 14.9 1.1 31 8.1 NW 9 20 5 11 - - 0.0
13/02:00pm 17.8 14.0 1.5 33 7.7 NW 11 17 6 9 - - 0.0
13/01:50pm 17.7 14.2 1.0 32 7.8 NNW 9 13 5 7 - - 0.0
13/01:40pm 17.1 12.8 1.3 34 7.4 NW 13 20 7 11 - - 0.0
13/01:30pm 17.0 12.5 2.1 36 7.1 NNW 15 20 8 11 - - 0.0
13/01:20pm 17.7 14.3 1.9 34 7.5 NW 9 13 5 7 - - 0.0
13/01:10pm 16.9 13.5 1.6 35 7.2 NW 9 17 5 9 - - 0.0
13/01:00pm 16.4 11.9 2.1 38 6.8 NNW 15 19 8 10 - - 0.0
13/12:50pm 16.5 13.2 2.7 39 6.6 NW 9 13 5 7 - - 0.0
13/12:40pm 16.0 12.7 2.3 39 6.5 N 9 11 5 6 - - 0.0
13/12:30pm 15.8 11.6 1.6 38 6.6 NNW 13 17 7 9 - - 0.0
13/12:20pm 16.4 13.1 2.6 39 6.6 N 9 15 5 8 - - 0.0
13/12:10pm 16.5 14.2 2.8 40 6.6 NW 4 7 2 4 - - 0.0
13/12:00pm 15.4 12.4 2.2 41 6.2 NW 7 11 4 6 - - 0.0
13/11:50am 15.3 12.4 2.8 43 5.9 N 7 11 4 6 - - 0.0
13/11:40am 15.3 12.0 2.7 42 6.0 NW 9 13 5 7 - - 0.0
13/11:30am 14.9 11.9 2.1 42 6.0 N 7 9 4 5 - - 0.0
13/11:20am 14.4 10.4 0.8 39 6.2 NNW 11 15 6 8 - - 0.0
13/11:10am 14.2 10.6 2.7 46 5.4 NNW 11 15 6 8 - - 0.0
13/11:00am 14.1 10.4 2.5 45 5.4 NNW 11 17 6 9 - - 0.0
13/10:50am 14.0 10.8 2.9 47 5.2 N 9 11 5 6 - - 0.0
13/10:40am 13.9 11.2 3.6 50 4.9 NNW 7 9 4 5 - - 0.0
13/10:30am 13.5 10.8 3.5 51 4.8 N 7 9 4 5 - - 0.0
13/10:20am 13.2 10.6 3.1 50 4.8 N 6 7 3 4 - - 0.0
13/10:10am 13.2 10.5 3.6 52 4.6 N 7 9 4 5 - - 0.0
13/10:00am 13.7 10.9 1.8 44 5.5 NNW 6 9 3 5 - - 0.0
13/09:50am 13.2 10.8 2.2 47 5.1 NNW 4 6 2 3 - - 0.0
13/09:40am 12.8 10.3 1.8 47 5.0 NNW 4 6 2 3 - - 0.0
13/09:30am 12.9 10.5 1.9 47 5.0 NNW 4 6 2 3 - - 0.0
13/09:20am 13.1 10.6 1.4 45 5.3 NNW 4 6 2 3 - - 0.0
13/09:10am 12.7 9.9 1.9 47 4.9 N 6 7 3 4 - - 0.0
13/09:00am 12.5 9.7 2.3 50 4.7 NNE 6 7 3 4 - - 0.0
13/08:50am 12.3 9.2 1.5 47 4.9 NNE 7 9 4 5 - - 0.0
13/08:40am 12.5 9.6 1.6 47 4.9 NNE 6 7 3 4 - - 0.0
13/08:30am 12.3 9.4 1.7 48 4.8 N 6 11 3 6 - - 0.0
13/08:20am 12.1 9.7 2.1 50 4.6 NNE 4 6 2 3 - - 0.0
13/08:10am 11.7 9.3 2.0 51 4.4 NE 4 7 2 4 - - 0.0
13/08:00am 11.3 8.8 1.5 51 4.4 E 4 7 2 4 - - 0.0
13/07:50am 10.8 7.9 1.4 52 4.2 ENE 6 9 3 5 - - 0.0
13/07:40am 10.3 7.3 1.1 53 4.0 NE 6 6 3 3 - - 0.0
13/07:30am 9.9 6.9 0.9 53 3.9 NE 6 11 3 6 - - 0.0
13/07:20am 9.3 6.3 0.6 54 3.7 NE 6 7 3 4 - - 0.0
13/07:10am 8.3 5.3 0.8 59 3.2 ENE 6 7 3 4 - - 0.0
13/07:00am 7.9 4.7 1.0 61 3.0 E 7 9 4 5 - - 0.0
13/06:50am 7.3 4.2 1.2 65 2.6 E 7 11 4 6 - - 0.0
13/06:40am 7.0 3.9 1.3 67 2.4 E 7 7 4 4 - - 0.0
13/06:30am 7.0 3.9 1.3 67 2.4 E 7 9 4 5 - - 0.0
13/06:20am 6.9 3.4 1.1 66 2.5 ESE 9 11 5 6 - - 0.0
13/06:10am 6.8 3.7 1.2 67 2.4 ESE 7 11 4 6 - - 0.0
13/06:00am 6.6 3.5 1.4 69 2.2 E 7 9 4 5 - - 0.0
13/05:50am 6.6 3.2 1.6 70 2.1 - 9 11 5 6 - - 0.0
13/05:40am 6.7 3.3 1.6 70 2.2 ESE 9 9 5 5 - - 0.0
13/05:30am 6.8 3.4 1.6 69 2.2 ESE 9 11 5 6 - - 0.0
13/05:20am 6.8 3.3 1.5 69 2.3 ESE 9 11 5 6 - - 0.0
13/05:10am 6.7 3.2 1.5 69 2.2 ESE 9 11 5 6 - - 0.0
13/05:00am 6.4 3.4 1.7 72 2.0 ESE 7 9 4 5 - - 0.0
13/04:50am 6.5 3.6 1.7 71 2.1 ESE 6 7 3 4 - - 0.0
13/04:40am 6.6 3.6 1.7 71 2.1 ESE 7 9 4 5 - - 0.0
13/04:30am 6.6 3.1 1.5 70 2.2 ESE 9 9 5 5 - - 0.0
13/04:20am 6.6 3.2 1.7 71 2.1 ESE 9 9 5 5 - - 0.0
13/04:10am 6.6 3.6 1.7 71 2.1 ESE 7 9 4 5 - - 0.0
13/04:00am 6.6 3.6 2.0 72 2.0 ESE 7 7 4 4 - - 0.0
13/03:50am 6.8 3.4 1.8 70 2.2 ESE 9 11 5 6 - - 0.0
13/03:40am 6.9 3.5 1.9 70 2.2 ESE 9 9 5 5 - - 0.0
13/03:30am 6.7 3.3 1.7 70 2.2 SE 9 11 5 6 - - 0.0
13/03:20am 6.6 3.6 2.1 73 2.0 SE 7 9 4 5 - - 0.0
13/03:10am 6.6 3.6 2.0 72 2.0 ESE 7 9 4 5 - - 0.0
13/03:00am 6.8 3.8 1.9 71 2.1 ESE 7 9 4 5 - - 0.0
13/02:50am 6.8 3.8 2.0 71 2.1 ESE 7 9 4 5 - - 0.0
13/02:40am 6.8 3.8 1.9 71 2.1 ESE 7 9 4 5 - - 0.0
13/02:30am 6.8 3.8 1.8 70 2.2 ESE 7 9 4 5 - - 0.0
13/02:20am 6.9 4.0 1.7 69 2.2 E 6 7 3 4 - - 0.0
13/02:10am 6.9 4.0 1.6 69 2.3 E 6 7 3 4 - - 0.0
13/02:00am 7.0 3.9 1.6 68 2.3 E 7 7 4 4 - - 0.0
13/01:50am 7.2 4.3 1.5 67 2.5 E 6 6 3 3 - - 0.0
13/01:40am 7.2 4.3 1.4 66 2.5 ENE 6 7 3 4 - - 0.0
13/01:30am 7.1 4.2 1.4 67 2.4 E 6 7 3 4 - - 0.0
13/01:20am 7.2 4.1 1.3 66 2.5 ESE 7 9 4 5 - - 0.0
13/01:10am 7.3 3.8 1.1 65 2.6 ESE 9 11 5 6 - - 0.0
13/01:00am 7.1 3.9 1.0 65 2.6 ESE 7 9 4 5 - - 0.0
13/12:50am 7.3 3.8 1.4 66 2.5 ESE 9 11 5 6 - - 0.0
13/12:40am 7.3 3.8 1.3 65 2.6 ESE 9 9 5 5 - - 0.0
13/12:30am 7.3 3.8 1.3 65 2.6 ESE 9 11 5 6 - - 0.0
13/12:20am 7.4 3.9 1.3 65 2.6 ESE 9 11 5 6 - - 0.0
13/12:10am 7.5 4.0 1.3 65 2.7 ESE 9 11 5 6 - - 0.0
13/12:00am 7.6 4.1 1.3 64 2.7 ESE 9 11 5 6 - - 0.0
 
Date/Time
EST
Temp
°C
App
Temp
°C
Dew
Point
°C
Rel
Hum
%
Delta-T
°C
Wind Press
QNH
hPa
Press
MSL
hPa
Rain since
9am
mm
Dir  Spd
km/h
Gust
km/h
Spd
kts
Gust
kts
12/11:50pm 7.7 4.2 1.3 64 2.8 ESE 9 11 5 6 - - 0.0
12/11:40pm 7.9 4.4 1.2 62 2.9 ESE 9 13 5 7 - - 0.0
12/11:30pm 8.0 4.1 1.3 62 2.9 ESE 11 13 6 7 - - 0.0
12/11:20pm 8.2 3.9 1.2 61 3.0 ESE 13 13 7 7 - - 0.0
12/11:10pm 8.2 4.3 1.1 61 3.1 E 11 13 6 7 - - 0.0
12/11:00pm 8.2 4.7 1.2 61 3.0 E 9 13 5 7 - - 0.0
12/10:50pm 8.1 4.6 1.2 62 3.0 ESE 9 11 5 6 - - 0.0
12/10:40pm 8.2 4.7 1.4 62 3.0 ESE 9 11 5 6 - - 0.0
12/10:30pm 8.2 5.1 1.5 62 2.9 E 7 9 4 5 - - 0.0
12/10:20pm 8.3 5.2 1.5 62 3.0 E 7 9 4 5 - - 0.0
12/10:10pm 8.4 5.3 1.5 62 3.0 E 7 7 4 4 - - 0.0
12/10:00pm 8.5 5.4 1.5 61 3.1 E 7 9 4 5 - - 0.0
12/09:50pm 8.6 5.5 1.5 61 3.1 ESE 7 9 4 5 - - 0.0
12/09:40pm 8.7 5.6 1.6 61 3.1 ESE 7 9 4 5 - - 0.0
12/09:30pm 8.9 5.4 1.5 60 3.2 ESE 9 11 5 6 - - 0.0
12/09:20pm 9.0 5.5 1.5 59 3.3 ESE 9 11 5 6 - - 0.0
12/09:10pm 9.1 5.6 1.4 58 3.4 ESE 9 11 5 6 - - 0.0
12/09:00pm 9.2 6.1 1.3 58 3.5 ESE 7 11 4 6 - - 0.0
12/08:50pm 9.4 5.9 1.3 57 3.5 ESE 9 11 5 6 - - 0.0
12/08:40pm 9.6 6.1 1.2 56 3.7 ESE 9 11 5 6 - - 0.0
12/08:30pm 9.7 6.6 1.2 55 3.7 E 7 11 4 6 - - 0.0
12/08:20pm 9.7 6.2 1.2 55 3.7 E 9 11 5 6 - - 0.0
12/08:10pm 9.8 6.3 1.2 55 3.8 E 9 11 5 6 - - 0.0
12/08:00pm 9.9 6.4 1.0 54 3.9 E 9 13 5 7 - - 0.0
12/07:50pm 10.0 6.1 1.0 53 3.9 E 11 15 6 8 - - 0.0
12/07:40pm 10.4 6.1 1.0 52 4.1 ENE 13 17 7 9 - - 0.0
12/07:30pm 10.9 7.2 -0.1 46 4.7 SE 9 11 5 6 - - 0.0
12/07:20pm 10.9 7.3 -2.3 39 5.4 S 7 9 4 5 - - 0.0
12/07:10pm 10.7 7.3 -1.9 41 5.2 S 6 7 3 4 - - 0.0
12/07:00pm 10.8 7.4 -1.8 41 5.2 SSW 6 7 3 4 - - 0.0
12/06:50pm 10.9 7.5 -1.7 41 5.2 SSW 6 7 3 4 - - 0.0
12/06:40pm 11.1 7.7 -1.9 40 5.4 SSW 6 7 3 4 - - 0.0
12/06:30pm 11.5 8.1 -1.8 39 5.5 SW 6 7 3 4 - - 0.0
12/06:20pm 11.8 8.2 -2.1 38 5.8 SW 7 9 4 5 - - 0.0
12/06:10pm 12.1 8.1 -2.4 36 6.0 WSW 9 11 5 6 - - 0.0
12/06:00pm 12.5 8.1 -2.7 34 6.3 WSW 11 13 6 7 - - 0.0
12/05:50pm 12.6 8.2 -2.4 35 6.2 W 11 13 6 7 - - 0.0
12/05:40pm 13.0 9.0 -2.2 35 6.4 W 9 11 5 6 - - 0.0
12/05:30pm 13.3 9.3 -2.1 34 6.5 WSW 9 13 5 7 - - 0.0
12/05:20pm 13.7 9.7 -1.9 34 6.6 W 9 13 5 7 - - 0.0
12/05:10pm 14.2 10.8 -0.9 35 6.6 W 7 9 4 5 - - 0.0
12/05:00pm 14.7 10.8 -1.2 33 6.9 W 9 11 5 6 - - 0.0
12/04:50pm 15.0 11.1 -1.3 32 7.1 WNW 9 13 5 7 - - 0.0
12/04:40pm 15.5 11.7 -0.9 32 7.2 WNW 9 11 5 6 - - 0.0
12/04:30pm 15.4 11.6 -0.8 33 7.2 NNW 9 15 5 8 - - 0.0
12/04:20pm 15.8 12.0 -0.8 32 7.4 NNW 9 15 5 8 - - 0.0
12/04:10pm 16.2 12.9 -0.1 33 7.4 W 7 11 4 6 - - 0.0
12/04:00pm 16.7 13.4 0.3 33 7.5 W 7 13 4 7 - - 0.0
12/03:50pm 16.4 13.1 0.4 33 7.3 NW 7 11 4 6 - - 0.0
12/03:40pm 16.7 13.4 0.2 32 7.5 WSW 7 13 4 7 - - 0.0
12/03:30pm 16.7 14.0 0.6 33 7.4 SSE 4 9 2 5 - - 0.0
12/03:20pm 16.7 13.7 0.8 34 7.3 ESE 6 9 3 5 - - 0.0
12/03:10pm 16.2 12.8 -0.3 32 7.4 NNW 7 11 4 6 - - 0.0
12/03:00pm 16.6 13.3 -0.9 30 7.8 WNW 6 7 3 4 - - 0.0
12/02:50pm 16.1 12.7 -0.8 31 7.5 NNW 7 11 4 6 - - 0.0
12/02:40pm 15.8 12.6 -0.4 33 7.2 E 6 9 3 5 - - 0.0
12/02:30pm 15.9 13.1 -0.5 32 7.3 ESE 4 6 2 3 - - 0.0
12/02:20pm 15.9 12.4 -1.4 30 7.6 NNW 7 13 4 7 - - 0.0
12/02:10pm 16.1 12.2 -1.5 30 7.7 NNW 9 11 5 6 - - 0.0
12/02:00pm 15.2 11.9 -1.4 32 7.2 NE 6 7 3 4 - - 0.0
12/01:50pm 15.7 12.5 -0.3 33 7.2 E 6 7 3 4 - - 0.0
12/01:40pm 15.6 12.4 -0.2 34 7.1 SSE 6 7 3 4 - - 0.0
12/01:30pm 15.5 12.1 -0.7 33 7.2 N 7 15 4 8 - - 0.0
12/01:20pm 14.7 11.3 -0.8 34 6.8 NNE 7 11 4 6 - - 0.0
12/01:10pm 14.9 11.5 -0.3 35 6.8 N 7 13 4 7 - - 0.0
12/01:00pm 14.8 11.3 -1.1 33 6.9 N 7 15 4 8 - - 0.0
12/12:50pm 14.4 11.2 -0.3 36 6.5 E 6 7 3 4 - - 0.0
12/12:40pm 14.1 10.6 -1.2 35 6.6 N 7 15 4 8 - - 0.0
12/12:30pm 14.7 11.5 -0.3 36 6.6 NNW 6 9 3 5 - - 0.0
12/12:20pm 13.8 10.5 -0.2 38 6.2 N 7 15 4 8 - - 0.0
12/12:10pm 13.5 10.3 -0.7 37 6.2 NNE 6 9 3 5 - - 0.0
12/12:00pm 13.4 10.0 -0.3 39 6.0 NNW 7 11 4 6 - - 0.0
12/11:50am 14.1 10.4 0.2 38 6.2 NNW 9 15 5 8 - - 0.0
12/11:40am 13.6 10.5 0.1 39 6.0 NNE 6 9 3 5 - - 0.0
12/11:30am 13.0 9.8 -0.6 39 5.9 NNE 6 11 3 6 - - 0.0
12/11:20am 12.2 8.9 0.0 43 5.3 NNE 7 11 4 6 - - 0.0
12/11:10am 12.4 9.1 0.3 43 5.3 NNE 7 9 4 5 - - 0.0
12/11:00am 13.6 10.9 0.5 40 5.9 NW 4 7 2 4 - - 0.0
12/10:50am 13.5 10.3 -0.3 38 6.1 SW 6 7 3 4 - - 0.0
12/10:40am 13.1 10.0 -2.9 33 6.6 S 4 7 2 4 - - 0.0
12/10:30am 13.1 10.3 -0.7 38 6.0 ESE 4 7 2 4 - - 0.0
12/10:20am 13.0 10.0 -1.9 35 6.3 SSW 4 6 2 3 - - 0.0
12/10:10am 12.3 9.1 -0.7 40 5.6 SW 6 9 3 5 - - 0.0
12/10:00am 11.5 8.0 -1.2 41 5.4 S 7 11 4 6 - - 0.0
12/09:50am 11.3 8.0 -1.6 40 5.4 S 6 9 3 5 - - 0.0
12/09:30am 10.0 6.7 -1.1 46 4.6 SSE 6 9 3 5 - - 0.0
12/09:20am 10.1 6.7 -2.2 42 5.0 ESE 6 9 3 5 - - 0.0
12/09:10am 9.4 6.1 -1.2 47 4.4 S 6 9 3 5 - - 0.0
12/09:00am 8.5 4.1 -2.1 47 4.2 SSE 11 13 6 7 - - 0.0
12/08:50am 8.3 4.0 -1.7 49 4.0 S 11 17 6 9 - - 0.0
12/08:40am 8.1 4.2 -1.5 51 3.9 S 9 13 5 7 - - 0.0
12/08:30am 7.4 2.7 -1.8 52 3.7 S 13 15 7 8 - - 0.0
12/08:20am 6.7 1.7 -1.4 56 3.2 S 15 19 8 10 - - 0.0
12/08:10am 6.2 1.6 -1.0 60 2.9 S 13 20 7 11 - - 0.0
12/08:00am 6.0 1.4 -1.1 60 2.8 S 13 19 7 10 - - 0.0
12/07:50am 5.5 0.9 -0.8 64 2.5 S 13 17 7 9 - - 0.0
12/07:40am 5.2 1.0 -0.7 66 2.4 S 11 17 6 9 - - 0.0
12/07:30am 4.8 -0.2 -1.0 66 2.3 S 15 22 8 12 - - 0.0
12/07:20am 4.6 -1.2 -1.3 65 2.3 S 19 22 10 12 - - 0.0
12/07:10am 4.1 -1.6 -0.9 70 2.0 S 19 20 10 11 - - 0.0
12/07:00am 3.5 -1.1 -1.0 72 1.8 S 13 19 7 10 - - 0.0
12/06:50am 3.2 -1.4 -0.9 74 1.6 S 13 20 7 11 - - 0.0
12/06:40am 3.1 -1.8 -0.7 76 1.5 SSW 15 19 8 10 - - 0.0
12/06:30am 3.2 -1.7 -0.6 76 1.5 SSW 15 20 8 11 - - 0.0
12/06:20am 3.3 -2.0 -0.8 74 1.6 SSW 17 22 9 12 - - 0.0
12/06:10am 3.3 -2.0 -0.9 74 1.6 SSW 17 20 9 11 - - 0.0
12/06:00am 3.2 -2.5 -0.7 75 1.5 SSW 19 24 10 13 - - 0.0
12/05:50am 3.1 -2.6 -0.5 77 1.4 SW 19 20 10 11 - - 0.0
12/05:40am 3.1 -2.8 -0.6 77 1.5 SW 20 26 11 14 - - 0.0
12/05:30am 3.1 -2.6 -0.6 77 1.5 SW 19 28 10 15 - - 0.0
12/05:20am 3.1 -2.8 -0.5 77 1.4 SW 20 26 11 14 - - 0.0
12/05:10am 3.2 -2.6 -0.4 77 1.4 SW 20 24 11 13 - - 0.0
12/05:00am 3.2 -2.5 -0.4 77 1.4 SW 19 22 10 12 - - 0.0
12/04:50am 3.3 -2.4 -0.5 76 1.5 SW 19 24 10 13 - - 0.0
12/04:40am 3.4 -1.9 -0.5 75 1.5 SW 17 20 9 11 - - 0.0
12/04:30am 3.6 -2.3 -0.6 74 1.7 WSW 20 28 11 15 - - 0.0
12/04:20am 3.7 -2.5 -0.6 73 1.7 SW 22 26 12 14 - - 0.0
12/04:10am 3.8 -2.8 -0.7 72 1.8 WSW 24 28 13 15 - - 0.0
12/04:00am 3.9 -3.1 -0.8 71 1.9 WSW 26 32 14 17 - - 0.0
12/03:50am 4.0 -3.1 -0.9 70 1.9 WSW 26 30 14 16 - - 0.0
12/03:40am 4.1 -3.4 -1.1 69 2.0 WSW 28 33 15 18 - - 0.0
12/03:30am 4.2 -2.5 -1.0 69 2.0 WSW 24 35 13 19 - - 0.0
12/03:20am 4.3 -3.5 -1.1 68 2.1 WSW 30 33 16 18 - - 0.0
12/03:10am 4.3 -3.5 -1.1 68 2.1 WSW 30 35 16 19 - - 0.0
12/03:00am 4.4 -3.8 -1.1 67 2.2 WSW 32 37 17 20 - - 0.0
12/02:50am 4.4 -3.8 -0.9 68 2.1 WSW 32 35 17 19 - - 0.0
12/02:40am 4.5 -3.9 -0.9 68 2.1 WSW 33 39 18 21 - - 0.0
12/02:30am 4.5 -4.6 -0.9 68 2.1 WSW 37 41 20 22 - - 0.0
12/02:20am 4.5 -4.3 -0.9 68 2.1 WSW 35 39 19 21 - - 0.0
12/02:10am 4.6 -4.6 -1.0 67 2.2 WSW 37 41 20 22 - - 0.0
12/02:00am 4.6 -4.6 -1.0 67 2.2 WSW 37 39 20 21 - - 0.0
12/01:50am 4.6 -4.5 -0.9 67 2.2 WSW 37 39 20 21 - - 0.0
12/01:40am 4.6 -3.8 -0.8 68 2.1 WSW 33 37 18 20 - - 0.0
12/01:30am 4.6 -3.5 -0.6 69 2.1 WSW 32 33 17 18 - - 0.0
12/01:20am 4.6 -4.1 -0.7 68 2.1 WSW 35 41 19 22 - - 0.0
12/01:10am 4.7 -4.0 -0.7 68 2.2 WSW 35 39 19 21 - - 0.0
12/01:00am 4.8 -4.3 -0.7 67 2.2 WSW 37 43 20 23 - - 0.0

Other formats

Comma delimited format used in spreadsheet applications
http://www.bom.gov.au/fwo/IDN60801/IDN60801.99999.axf

JavaScript Object Notation format (JSON) in row-major order
http://www.bom.gov.au/fwo/IDN60801/IDN60801.99999.json

Data quality

Most of these data are generated automatically and are frequently updated. Quality checks on data are not normally performed. It is possible for incorrect values to appear. Refer to information at About Latest Weather Observations and please check the disclaimer before using these data.